KOJC/OJC METAR and TAF weather

Enter ICAO airport designator
Station Type Date Time Source
KOJC METAR 2022/07/03 14:53 UTC NOAA

KOJC 031453Z 17005KT 8SM OVC008 24/21 A3006 RMK AO2 SLP169 T02390211 56001 $


Station Type Date Time Source
KOJC Decoded METAR 2022/07/03 14:53 UTC NOAA

OLATHE JOHNSON CO EXECUTIVE, KS, United States (KOJC) 38-50N 94-44W 326M
Jul 03, 2022 - 10:53 AM EDT / 2022.07.03 1453 UTC
Wind: from the S (170 degrees) at 6 MPH (5 KT):0
Visibility: 8 mile(s):0
Sky conditions: overcast
Temperature: 75.0 F (23.9 C)
Dew Point: 70.0 F (21.1 C)
Relative Humidity: 84%
Pressure (altimeter): 30.06 in. Hg (1017 hPa)
Pressure tendency: 0.00 inches (0.1 hPa) lower than three hours ago
ob: KOJC 031453Z 17005KT 8SM OVC008 24/21 A3006 RMK AO2 SLP169 T02390211 56001
cycle: 15

Station Type Date Time Source
KOJC TAF UTC NOAA

Error!

Example: see airport list